sensor_id;sensor_type;location;lat;lon;timestamp;P1;durP1;ratioP1;P2;durP2;ratioP2
17504;SDS011;8870;50.950;11.762;2022-12-08T00:03:43;4.43;;;2.40;;
17504;SDS011;8870;50.950;11.762;2022-12-08T00:09:02;3.83;;;2.95;;
17504;SDS011;8870;50.950;11.762;2022-12-08T00:14:53;3.65;;;2.70;;
17504;SDS011;8870;50.950;11.762;2022-12-08T00:20:13;4.55;;;2.72;;
17504;SDS011;8870;50.950;11.762;2022-12-08T00:25:45;4.30;;;2.95;;
17504;SDS011;8870;50.950;11.762;2022-12-08T00:31:07;4.50;;;2.80;;
17504;SDS011;8870;50.950;11.762;2022-12-08T00:36:42;4.20;;;3.00;;
17504;SDS011;8870;50.950;11.762;2022-12-08T00:42:02;3.72;;;3.38;;
17504;SDS011;8870;50.950;11.762;2022-12-08T00:47:38;5.75;;;3.22;;
17504;SDS011;8870;50.950;11.762;2022-12-08T00:52:58;4.85;;;3.15;;
17504;SDS011;8870;50.950;11.762;2022-12-08T00:58:29;6.72;;;3.50;;
17504;SDS011;8870;50.950;11.762;2022-12-08T01:04:01;4.32;;;3.45;;
17504;SDS011;8870;50.950;11.762;2022-12-08T01:09:23;5.03;;;3.28;;
17504;SDS011;8870;50.950;11.762;2022-12-08T01:14:55;4.75;;;3.45;;
17504;SDS011;8870;50.950;11.762;2022-12-08T01:20:13;6.30;;;3.55;;
17504;SDS011;8870;50.950;11.762;2022-12-08T01:25:46;3.63;;;3.05;;
17504;SDS011;8870;50.950;11.762;2022-12-08T01:31:08;5.03;;;3.22;;
17504;SDS011;8870;50.950;11.762;2022-12-08T01:36:42;5.80;;;3.22;;
17504;SDS011;8870;50.950;11.762;2022-12-08T01:42:04;4.43;;;3.20;;
17504;SDS011;8870;50.950;11.762;2022-12-08T01:47:36;3.60;;;2.80;;
17504;SDS011;8870;50.950;11.762;2022-12-08T01:52:58;5.65;;;3.47;;
17504;SDS011;8870;50.950;11.762;2022-12-08T01:58:39;5.97;;;3.50;;
17504;SDS011;8870;50.950;11.762;2022-12-08T02:04:13;3.78;;;3.00;;
17504;SDS011;8870;50.950;11.762;2022-12-08T02:09:32;4.80;;;3.20;;
17504;SDS011;8870;50.950;11.762;2022-12-08T02:15:07;4.95;;;3.10;;
17504;SDS011;8870;50.950;11.762;2022-12-08T02:20:34;5.55;;;3.25;;
17504;SDS011;8870;50.950;11.762;2022-12-08T02:32:17;4.30;;;2.88;;
17504;SDS011;8870;50.950;11.762;2022-12-08T02:38:11;4.85;;;3.30;;
17504;SDS011;8870;50.950;11.762;2022-12-08T02:43:38;5.20;;;3.20;;
17504;SDS011;8870;50.950;11.762;2022-12-08T02:49:14;4.60;;;3.40;;
17504;SDS011;8870;50.950;11.762;2022-12-08T02:54:42;4.35;;;2.97;;
17504;SDS011;8870;50.950;11.762;2022-12-08T03:00:17;4.07;;;3.00;;
17504;SDS011;8870;50.950;11.762;2022-12-08T03:05:44;4.13;;;3.00;;
17504;SDS011;8870;50.950;11.762;2022-12-08T03:11:33;5.45;;;3.10;;
17504;SDS011;8870;50.950;11.762;2022-12-08T03:16:57;3.63;;;2.85;;
17504;SDS011;8870;50.950;11.762;2022-12-08T03:22:30;5.07;;;3.05;;
17504;SDS011;8870;50.950;11.762;2022-12-08T03:27:51;3.22;;;2.58;;
17504;SDS011;8870;50.950;11.762;2022-12-08T03:33:24;3.00;;;2.63;;
17504;SDS011;8870;50.950;11.762;2022-12-08T03:38:45;3.30;;;2.70;;
17504;SDS011;8870;50.950;11.762;2022-12-08T03:44:22;3.33;;;2.97;;
17504;SDS011;8870;50.950;11.762;2022-12-08T03:49:41;2.97;;;2.78;;
17504;SDS011;8870;50.950;11.762;2022-12-08T03:55:12;3.17;;;2.90;;
17504;SDS011;8870;50.950;11.762;2022-12-08T04:00:32;3.55;;;3.05;;
17504;SDS011;8870;50.950;11.762;2022-12-08T04:06:04;3.50;;;3.20;;
17504;SDS011;8870;50.950;11.762;2022-12-08T04:11:23;4.38;;;4.00;;
17504;SDS011;8870;50.950;11.762;2022-12-08T04:16:56;4.75;;;4.25;;
17504;SDS011;8870;50.950;11.762;2022-12-08T04:22:15;5.70;;;4.80;;
17504;SDS011;8870;50.950;11.762;2022-12-08T04:27:47;5.05;;;4.47;;
17504;SDS011;8870;50.950;11.762;2022-12-08T04:33:07;5.30;;;4.80;;
17504;SDS011;8870;50.950;11.762;2022-12-08T04:38:39;5.85;;;4.88;;
17504;SDS011;8870;50.950;11.762;2022-12-08T04:43:57;5.60;;;5.00;;
17504;SDS011;8870;50.950;11.762;2022-12-08T04:49:30;7.47;;;5.15;;
17504;SDS011;8870;50.950;11.762;2022-12-08T04:54:49;5.38;;;4.88;;
17504;SDS011;8870;50.950;11.762;2022-12-08T05:00:21;6.35;;;5.10;;
17504;SDS011;8870;50.950;11.762;2022-12-08T05:05:42;6.65;;;5.22;;
17504;SDS011;8870;50.950;11.762;2022-12-08T05:11:14;6.05;;;5.10;;
17504;SDS011;8870;50.950;11.762;2022-12-08T05:16:33;5.82;;;5.13;;
17504;SDS011;8870;50.950;11.762;2022-12-08T05:22:06;6.35;;;5.15;;
17504;SDS011;8870;50.950;11.762;2022-12-08T05:27:25;6.05;;;5.15;;
17504;SDS011;8870;50.950;11.762;2022-12-08T05:32:56;5.63;;;5.10;;
17504;SDS011;8870;50.950;11.762;2022-12-08T05:38:16;6.85;;;5.30;;
17504;SDS011;8870;50.950;11.762;2022-12-08T05:43:48;5.82;;;5.22;;
17504;SDS011;8870;50.950;11.762;2022-12-08T05:49:06;6.53;;;5.30;;
17504;SDS011;8870;50.950;11.762;2022-12-08T05:54:39;7.65;;;5.90;;
17504;SDS011;8870;50.950;11.762;2022-12-08T05:59:58;6.35;;;5.70;;
17504;SDS011;8870;50.950;11.762;2022-12-08T06:05:30;8.10;;;5.90;;
17504;SDS011;8870;50.950;11.762;2022-12-08T06:10:51;6.72;;;6.00;;
17504;SDS011;8870;50.950;11.762;2022-12-08T06:16:23;6.75;;;5.40;;
17504;SDS011;8870;50.950;11.762;2022-12-08T06:21:42;6.72;;;5.65;;
17504;SDS011;8870;50.950;11.762;2022-12-08T06:27:15;7.10;;;5.90;;
17504;SDS011;8870;50.950;11.762;2022-12-08T06:32:34;5.80;;;5.20;;
17504;SDS011;8870;50.950;11.762;2022-12-08T06:38:06;7.50;;;6.10;;
17504;SDS011;8870;50.950;11.762;2022-12-08T06:43:26;6.90;;;5.72;;
17504;SDS011;8870;50.950;11.762;2022-12-08T06:48:58;7.25;;;5.93;;
17504;SDS011;8870;50.950;11.762;2022-12-08T06:54:16;5.72;;;5.18;;
17504;SDS011;8870;50.950;11.762;2022-12-08T06:59:49;5.50;;;5.00;;
17504;SDS011;8870;50.950;11.762;2022-12-08T07:05:08;6.47;;;5.05;;
17504;SDS011;8870;50.950;11.762;2022-12-08T07:10:39;5.95;;;4.75;;
17504;SDS011;8870;50.950;11.762;2022-12-08T07:16:02;7.43;;;5.05;;
17504;SDS011;8870;50.950;11.762;2022-12-08T07:21:35;6.07;;;5.30;;
17504;SDS011;8870;50.950;11.762;2022-12-08T07:26:53;5.47;;;4.97;;
17504;SDS011;8870;50.950;11.762;2022-12-08T07:32:27;4.80;;;4.28;;
17504;SDS011;8870;50.950;11.762;2022-12-08T07:37:46;4.63;;;4.22;;
17504;SDS011;8870;50.950;11.762;2022-12-08T07:43:18;5.70;;;5.20;;
17504;SDS011;8870;50.950;11.762;2022-12-08T07:48:38;6.25;;;5.60;;
17504;SDS011;8870;50.950;11.762;2022-12-08T07:54:10;5.95;;;5.45;;
17504;SDS011;8870;50.950;11.762;2022-12-08T07:59:36;7.10;;;6.13;;
17504;SDS011;8870;50.950;11.762;2022-12-08T08:05:10;7.65;;;6.45;;
17504;SDS011;8870;50.950;11.762;2022-12-08T08:10:29;6.53;;;5.93;;
17504;SDS011;8870;50.950;11.762;2022-12-08T08:16:01;6.50;;;5.90;;
17504;SDS011;8870;50.950;11.762;2022-12-08T08:21:22;5.95;;;5.35;;
17504;SDS011;8870;50.950;11.762;2022-12-08T08:27:01;5.70;;;5.20;;
17504;SDS011;8870;50.950;11.762;2022-12-08T08:32:21;5.80;;;5.22;;
17504;SDS011;8870;50.950;11.762;2022-12-08T08:37:54;5.78;;;4.47;;
17504;SDS011;8870;50.950;11.762;2022-12-08T08:43:13;4.97;;;4.57;;
17504;SDS011;8870;50.950;11.762;2022-12-08T08:48:53;5.22;;;4.65;;
17504;SDS011;8870;50.950;11.762;2022-12-08T08:54:14;4.95;;;4.50;;
17504;SDS011;8870;50.950;11.762;2022-12-08T08:59:45;4.80;;;4.40;;
17504;SDS011;8870;50.950;11.762;2022-12-08T09:05:16;7.07;;;5.17;;
17504;SDS011;8870;50.950;11.762;2022-12-08T09:10:36;5.60;;;5.10;;
17504;SDS011;8870;50.950;11.762;2022-12-08T09:16:08;5.50;;;5.00;;
17504;SDS011;8870;50.950;11.762;2022-12-08T09:21:28;5.85;;;5.28;;
17504;SDS011;8870;50.950;11.762;2022-12-08T09:27:01;5.40;;;4.90;;
17504;SDS011;8870;50.950;11.762;2022-12-08T09:32:20;6.40;;;5.35;;
17504;SDS011;8870;50.950;11.762;2022-12-08T09:37:51;6.13;;;5.53;;
17504;SDS011;8870;50.950;11.762;2022-12-08T09:43:15;6.35;;;5.75;;
17504;SDS011;8870;50.950;11.762;2022-12-08T09:48:57;6.13;;;5.53;;
17504;SDS011;8870;50.950;11.762;2022-12-08T09:54:17;6.47;;;5.78;;
17504;SDS011;8870;50.950;11.762;2022-12-08T09:59:54;6.13;;;5.53;;
17504;SDS011;8870;50.950;11.762;2022-12-08T10:05:30;6.40;;;5.68;;
17504;SDS011;8870;50.950;11.762;2022-12-08T10:10:56;6.30;;;5.22;;
17504;SDS011;8870;50.950;11.762;2022-12-08T10:16:33;6.22;;;5.18;;
17504;SDS011;8870;50.950;11.762;2022-12-08T10:21:56;6.30;;;5.63;;
17504;SDS011;8870;50.950;11.762;2022-12-08T10:27:27;5.97;;;5.38;;
17504;SDS011;8870;50.950;11.762;2022-12-08T10:32:48;5.35;;;4.80;;
17504;SDS011;8870;50.950;11.762;2022-12-08T10:38:21;5.25;;;4.75;;
17504;SDS011;8870;50.950;11.762;2022-12-08T10:43:44;5.10;;;4.65;;
17504;SDS011;8870;50.950;11.762;2022-12-08T10:49:24;5.20;;;4.70;;
17504;SDS011;8870;50.950;11.762;2022-12-08T10:54:46;4.63;;;4.10;;
17504;SDS011;8870;50.950;11.762;2022-12-08T11:00:23;4.47;;;4.07;;
17504;SDS011;8870;50.950;11.762;2022-12-08T11:05:46;4.32;;;3.78;;
17504;SDS011;8870;50.950;11.762;2022-12-08T11:11:36;4.57;;;4.10;;
17504;SDS011;8870;50.950;11.762;2022-12-08T11:17:02;4.35;;;3.83;;
17504;SDS011;8870;50.950;11.762;2022-12-08T11:22:39;4.60;;;4.20;;
17504;SDS011;8870;50.950;11.762;2022-12-08T11:28:00;4.13;;;3.75;;
17504;SDS011;8870;50.950;11.762;2022-12-08T11:33:33;4.07;;;3.67;;
17504;SDS011;8870;50.950;11.762;2022-12-08T11:38:54;3.70;;;3.40;;
17504;SDS011;8870;50.950;11.762;2022-12-08T11:44:30;3.60;;;3.30;;
17504;SDS011;8870;50.950;11.762;2022-12-08T11:49:58;3.50;;;3.20;;
17504;SDS011;8870;50.950;11.762;2022-12-08T11:55:44;4.10;;;3.25;;
17504;SDS011;8870;50.950;11.762;2022-12-08T12:01:08;3.50;;;3.20;;
17504;SDS011;8870;50.950;11.762;2022-12-08T12:12:50;3.05;;;2.80;;
17504;SDS011;8870;50.950;11.762;2022-12-08T12:18:30;3.47;;;2.90;;
17504;SDS011;8870;50.950;11.762;2022-12-08T12:24:02;3.28;;;2.97;;
17504;SDS011;8870;50.950;11.762;2022-12-08T12:29:46;4.15;;;2.90;;
17504;SDS011;8870;50.950;11.762;2022-12-08T12:35:12;2.83;;;2.63;;
17504;SDS011;8870;50.950;11.762;2022-12-08T12:40:46;2.90;;;2.50;;
17504;SDS011;8870;50.950;11.762;2022-12-08T12:52:16;2.30;;;2.10;;
17504;SDS011;8870;50.950;11.762;2022-12-08T12:58:17;2.40;;;2.20;;
17504;SDS011;8870;50.950;11.762;2022-12-08T13:04:09;2.45;;;1.98;;
17504;SDS011;8870;50.950;11.762;2022-12-08T13:09:31;2.00;;;1.90;;
17504;SDS011;8870;50.950;11.762;2022-12-08T13:15:12;1.95;;;1.77;;
17504;SDS011;8870;50.950;11.762;2022-12-08T13:20:39;1.80;;;1.67;;
17504;SDS011;8870;50.950;11.762;2022-12-08T13:26:22;1.80;;;1.70;;
17504;SDS011;8870;50.950;11.762;2022-12-08T13:31:42;1.52;;;1.42;;
17504;SDS011;8870;50.950;11.762;2022-12-08T13:37:19;1.60;;;1.50;;
17504;SDS011;8870;50.950;11.762;2022-12-08T13:42:55;3.65;;;1.75;;
17504;SDS011;8870;50.950;11.762;2022-12-08T13:48:37;1.60;;;1.50;;
17504;SDS011;8870;50.950;11.762;2022-12-08T13:54:23;1.95;;;1.83;;
17504;SDS011;8870;50.950;11.762;2022-12-08T14:00:22;1.50;;;1.40;;
17504;SDS011;8870;50.950;11.762;2022-12-08T14:05:54;1.70;;;1.60;;
17504;SDS011;8870;50.950;11.762;2022-12-08T14:11:23;1.70;;;1.60;;
17504;SDS011;8870;50.950;11.762;2022-12-08T14:17:03;2.40;;;1.60;;
17504;SDS011;8870;50.950;11.762;2022-12-08T14:22:30;1.90;;;1.80;;
17504;SDS011;8870;50.950;11.762;2022-12-08T14:28:02;1.90;;;1.80;;
17504;SDS011;8870;50.950;11.762;2022-12-08T14:33:24;2.60;;;1.65;;
17504;SDS011;8870;50.950;11.762;2022-12-08T14:38:55;1.70;;;1.60;;
17504;SDS011;8870;50.950;11.762;2022-12-08T14:44:20;1.90;;;1.73;;
17504;SDS011;8870;50.950;11.762;2022-12-08T14:49:55;2.60;;;1.58;;
17504;SDS011;8870;50.950;11.762;2022-12-08T14:55:14;1.77;;;1.67;;
17504;SDS011;8870;50.950;11.762;2022-12-08T15:00:47;2.08;;;1.63;;
17504;SDS011;8870;50.950;11.762;2022-12-08T15:06:11;1.52;;;1.42;;
17504;SDS011;8870;50.950;11.762;2022-12-08T15:11:42;1.70;;;1.60;;
17504;SDS011;8870;50.950;11.762;2022-12-08T15:17:00;1.90;;;1.80;;
17504;SDS011;8870;50.950;11.762;2022-12-08T15:22:34;1.50;;;1.40;;
17504;SDS011;8870;50.950;11.762;2022-12-08T15:27:52;2.90;;;1.65;;
17504;SDS011;8870;50.950;11.762;2022-12-08T15:33:23;1.67;;;1.58;;
17504;SDS011;8870;50.950;11.762;2022-12-08T15:38:46;2.72;;;1.80;;
17504;SDS011;8870;50.950;11.762;2022-12-08T15:44:17;2.38;;;2.17;;
17504;SDS011;8870;50.950;11.762;2022-12-08T15:49:35;2.20;;;2.00;;
17504;SDS011;8870;50.950;11.762;2022-12-08T15:55:10;2.05;;;1.88;;
17504;SDS011;8870;50.950;11.762;2022-12-08T16:00:36;1.70;;;1.60;;
17504;SDS011;8870;50.950;11.762;2022-12-08T16:06:08;1.52;;;1.42;;
17504;SDS011;8870;50.950;11.762;2022-12-08T16:11:55;1.70;;;1.60;;
17504;SDS011;8870;50.950;11.762;2022-12-08T16:17:39;1.80;;;1.70;;
17504;SDS011;8870;50.950;11.762;2022-12-08T16:22:58;2.70;;;2.50;;
17504;SDS011;8870;50.950;11.762;2022-12-08T16:28:52;2.28;;;2.08;;
17504;SDS011;8870;50.950;11.762;2022-12-08T16:34:11;2.50;;;2.30;;
17504;SDS011;8870;50.950;11.762;2022-12-08T16:39:42;2.28;;;2.13;;
17504;SDS011;8870;50.950;11.762;2022-12-08T16:45:04;2.35;;;2.10;;
17504;SDS011;8870;50.950;11.762;2022-12-08T16:50:38;2.65;;;2.00;;
17504;SDS011;8870;50.950;11.762;2022-12-08T16:56:01;2.15;;;1.92;;
17504;SDS011;8870;50.950;11.762;2022-12-08T17:01:35;2.38;;;2.20;;
17504;SDS011;8870;50.950;11.762;2022-12-08T17:06:53;2.10;;;1.95;;
17504;SDS011;8870;50.950;11.762;2022-12-08T17:12:24;2.05;;;1.95;;
17504;SDS011;8870;50.950;11.762;2022-12-08T17:17:45;2.40;;;2.20;;
17504;SDS011;8870;50.950;11.762;2022-12-08T17:23:17;2.45;;;2.20;;
17504;SDS011;8870;50.950;11.762;2022-12-08T17:28:35;2.15;;;2.00;;
17504;SDS011;8870;50.950;11.762;2022-12-08T17:34:19;2.50;;;2.20;;
17504;SDS011;8870;50.950;11.762;2022-12-08T17:39:37;2.20;;;2.00;;
17504;SDS011;8870;50.950;11.762;2022-12-08T17:45:09;2.30;;;2.10;;
17504;SDS011;8870;50.950;11.762;2022-12-08T17:50:31;2.20;;;2.00;;
17504;SDS011;8870;50.950;11.762;2022-12-08T17:56:03;2.20;;;2.00;;
17504;SDS011;8870;50.950;11.762;2022-12-08T18:01:35;2.20;;;2.00;;
17504;SDS011;8870;50.950;11.762;2022-12-08T18:06:56;2.10;;;2.00;;
17504;SDS011;8870;50.950;11.762;2022-12-08T18:12:27;2.58;;;2.38;;
17504;SDS011;8870;50.950;11.762;2022-12-08T18:17:45;3.03;;;2.40;;
17504;SDS011;8870;50.950;11.762;2022-12-08T18:23:21;2.30;;;2.10;;
17504;SDS011;8870;50.950;11.762;2022-12-08T18:28:39;4.63;;;2.85;;
17504;SDS011;8870;50.950;11.762;2022-12-08T18:34:11;3.17;;;2.92;;
17504;SDS011;8870;50.950;11.762;2022-12-08T18:39:32;3.50;;;3.20;;
17504;SDS011;8870;50.950;11.762;2022-12-08T18:45:03;3.40;;;3.10;;
17504;SDS011;8870;50.950;11.762;2022-12-08T18:50:41;3.63;;;3.33;;
17504;SDS011;8870;50.950;11.762;2022-12-08T18:56:02;3.50;;;3.20;;
17504;SDS011;8870;50.950;11.762;2022-12-08T19:01:34;3.60;;;3.30;;
17504;SDS011;8870;50.950;11.762;2022-12-08T19:06:54;3.55;;;3.25;;
17504;SDS011;8870;50.950;11.762;2022-12-08T19:12:29;3.88;;;3.58;;
17504;SDS011;8870;50.950;11.762;2022-12-08T19:17:47;3.83;;;3.42;;
17504;SDS011;8870;50.950;11.762;2022-12-08T19:23:18;3.72;;;3.42;;
17504;SDS011;8870;50.950;11.762;2022-12-08T19:28:39;3.38;;;3.10;;
17504;SDS011;8870;50.950;11.762;2022-12-08T19:34:11;4.20;;;3.90;;
17504;SDS011;8870;50.950;11.762;2022-12-08T19:39:30;3.90;;;3.60;;
17504;SDS011;8870;50.950;11.762;2022-12-08T19:45:20;4.10;;;3.10;;
17504;SDS011;8870;50.950;11.762;2022-12-08T19:50:38;3.10;;;2.90;;
17504;SDS011;8870;50.950;11.762;2022-12-08T19:56:10;3.95;;;2.80;;
17504;SDS011;8870;50.950;11.762;2022-12-08T20:01:31;13.07;;;10.00;;
17504;SDS011;8870;50.950;11.762;2022-12-08T20:07:04;4.85;;;4.45;;
17504;SDS011;8870;50.950;11.762;2022-12-08T20:12:22;6.40;;;5.80;;
17504;SDS011;8870;50.950;11.762;2022-12-08T20:17:57;6.15;;;5.55;;
17504;SDS011;8870;50.950;11.762;2022-12-08T20:23:19;4.33;;;3.93;;
17504;SDS011;8870;50.950;11.762;2022-12-08T20:28:51;3.33;;;2.92;;
17504;SDS011;8870;50.950;11.762;2022-12-08T20:34:14;3.20;;;2.90;;
17504;SDS011;8870;50.950;11.762;2022-12-08T20:39:47;2.73;;;2.53;;
17504;SDS011;8870;50.950;11.762;2022-12-08T20:45:18;3.80;;;2.60;;
17504;SDS011;8870;50.950;11.762;2022-12-08T20:50:40;3.20;;;2.90;;
17504;SDS011;8870;50.950;11.762;2022-12-08T20:56:14;2.85;;;2.60;;
17504;SDS011;8870;50.950;11.762;2022-12-08T21:01:33;3.10;;;2.90;;
17504;SDS011;8870;50.950;11.762;2022-12-08T21:07:07;3.20;;;2.90;;
17504;SDS011;8870;50.950;11.762;2022-12-08T21:12:26;3.42;;;3.13;;
17504;SDS011;8870;50.950;11.762;2022-12-08T21:17:57;3.30;;;3.08;;
17504;SDS011;8870;50.950;11.762;2022-12-08T21:23:18;3.90;;;3.50;;
17504;SDS011;8870;50.950;11.762;2022-12-08T21:28:49;4.32;;;3.90;;
17504;SDS011;8870;50.950;11.762;2022-12-08T21:34:08;4.60;;;4.20;;
17504;SDS011;8870;50.950;11.762;2022-12-08T21:39:43;4.28;;;3.88;;
17504;SDS011;8870;50.950;11.762;2022-12-08T21:45:01;3.80;;;3.50;;
17504;SDS011;8870;50.950;11.762;2022-12-08T21:50:33;4.18;;;3.78;;
17504;SDS011;8870;50.950;11.762;2022-12-08T21:55:55;4.03;;;3.63;;
17504;SDS011;8870;50.950;11.762;2022-12-08T22:01:26;4.32;;;4.00;;
17504;SDS011;8870;50.950;11.762;2022-12-08T22:06:57;6.50;;;4.40;;
17504;SDS011;8870;50.950;11.762;2022-12-08T22:12:18;4.90;;;4.50;;
17504;SDS011;8870;50.950;11.762;2022-12-08T22:17:49;5.20;;;4.70;;
17504;SDS011;8870;50.950;11.762;2022-12-08T22:23:07;5.55;;;5.05;;
17504;SDS011;8870;50.950;11.762;2022-12-08T22:28:41;5.70;;;5.20;;
17504;SDS011;8870;50.950;11.762;2022-12-08T22:33:59;5.47;;;4.97;;
17504;SDS011;8870;50.950;11.762;2022-12-08T22:39:30;5.30;;;4.80;;
17504;SDS011;8870;50.950;11.762;2022-12-08T22:44:52;5.15;;;4.75;;
17504;SDS011;8870;50.950;11.762;2022-12-08T22:50:23;4.50;;;4.10;;
17504;SDS011;8870;50.950;11.762;2022-12-08T22:55:41;4.55;;;4.15;;
17504;SDS011;8870;50.950;11.762;2022-12-08T23:01:23;4.75;;;4.35;;
17504;SDS011;8870;50.950;11.762;2022-12-08T23:06:56;5.32;;;4.93;;
17504;SDS011;8870;50.950;11.762;2022-12-08T23:12:14;5.13;;;4.63;;
17504;SDS011;8870;50.950;11.762;2022-12-08T23:17:48;4.78;;;4.38;;
17504;SDS011;8870;50.950;11.762;2022-12-08T23:23:06;4.90;;;4.50;;
17504;SDS011;8870;50.950;11.762;2022-12-08T23:28:37;5.00;;;4.60;;
17504;SDS011;8870;50.950;11.762;2022-12-08T23:33:58;6.32;;;4.70;;
17504;SDS011;8870;50.950;11.762;2022-12-08T23:39:29;5.32;;;4.53;;
17504;SDS011;8870;50.950;11.762;2022-12-08T23:44:48;5.40;;;4.90;;
17504;SDS011;8870;50.950;11.762;2022-12-08T23:50:22;5.40;;;4.93;;
17504;SDS011;8870;50.950;11.762;2022-12-08T23:55:41;5.10;;;4.70;;
